createdAt,value
2023-03-31T00:00:36.433Z,100.00
2023-03-31T00:03:39.234Z,100.00
2023-03-31T00:06:42.494Z,100.00
2023-03-31T00:09:48.486Z,100.00
2023-03-31T00:12:50.857Z,100.00
2023-03-31T00:16:00.961Z,100.00
2023-03-31T00:19:03.567Z,100.00
2023-03-31T00:22:06.284Z,100.00
2023-03-31T00:25:11.749Z,100.00
2023-03-31T00:28:14.084Z,100.00
2023-03-31T00:31:16.983Z,100.00
2023-03-31T00:34:19.578Z,100.00
2023-03-31T00:37:23.383Z,100.00
2023-03-31T00:40:25.826Z,100.00
2023-03-31T00:43:32.810Z,100.00
2023-03-31T00:46:38.606Z,100.00
2023-03-31T00:49:42.722Z,100.00
2023-03-31T00:52:47.013Z,100.00
2023-03-31T00:55:52.711Z,100.00
2023-03-31T00:58:58.329Z,100.00
2023-03-31T01:02:03.092Z,100.00
2023-03-31T01:05:06.996Z,100.00
2023-03-31T01:08:10.394Z,100.00
2023-03-31T01:11:17.075Z,100.00
2023-03-31T01:14:21.410Z,100.00
2023-03-31T01:17:25.699Z,100.00
2023-03-31T01:20:51.956Z,100.00
2023-03-31T01:24:14.063Z,100.00
2023-03-31T01:27:32.454Z,100.00
2023-03-31T01:30:55.625Z,100.00
2023-03-31T01:34:18.845Z,100.00
2023-03-31T01:37:40.340Z,100.00
2023-03-31T01:40:50.111Z,100.00
2023-03-31T01:44:05.331Z,100.00
2023-03-31T01:47:12.012Z,100.00
2023-03-31T01:50:16.924Z,100.00
2023-03-31T01:53:20.656Z,100.00
2023-03-31T01:56:30.653Z,100.00
2023-03-31T01:59:33.753Z,100.00
2023-03-31T02:02:39.805Z,100.00
2023-03-31T02:05:45.877Z,100.00
2023-03-31T02:08:51.790Z,100.00
2023-03-31T02:11:57.081Z,100.00
2023-03-31T02:15:02.018Z,100.00
2023-03-31T02:18:13.875Z,100.00
2023-03-31T02:21:17.731Z,100.00
2023-03-31T02:24:23.334Z,100.00
2023-03-31T02:27:28.329Z,100.00
2023-03-31T02:30:47.896Z,100.00
2023-03-31T02:33:51.672Z,100.00
2023-03-31T02:36:54.698Z,100.00
2023-03-31T02:39:59.098Z,100.00
2023-03-31T02:43:02.684Z,100.00
2023-03-31T02:46:06.673Z,100.00
2023-03-31T02:49:12.351Z,100.00
2023-03-31T02:52:16.529Z,100.00
2023-03-31T02:55:38.720Z,100.00
2023-03-31T02:58:49.999Z,100.00
2023-03-31T03:01:56.635Z,100.00
2023-03-31T03:04:59.991Z,100.00
2023-03-31T03:08:03.786Z,100.00
2023-03-31T03:11:25.926Z,100.00
2023-03-31T03:14:40.854Z,100.00
2023-03-31T03:17:48.050Z,100.00
2023-03-31T03:20:51.639Z,100.00
2023-03-31T03:23:56.019Z,100.00
2023-03-31T03:26:58.953Z,100.00
2023-03-31T03:30:05.565Z,100.00
2023-03-31T03:33:08.352Z,100.00
2023-03-31T03:36:12.062Z,100.00
2023-03-31T03:39:15.117Z,100.00
2023-03-31T03:42:18.302Z,100.00
2023-03-31T03:45:21.512Z,100.00
2023-03-31T03:48:26.129Z,100.00
2023-03-31T03:51:28.839Z,100.00
2023-03-31T03:54:31.764Z,100.00
2023-03-31T03:57:35.471Z,100.00
2023-03-31T04:00:39.417Z,100.00
2023-03-31T04:03:42.179Z,100.00
2023-03-31T04:06:46.937Z,100.00
2023-03-31T04:09:50.444Z,100.00
2023-03-31T04:12:54.565Z,100.00
2023-03-31T04:15:58.818Z,100.00
2023-03-31T04:19:05.776Z,100.00
2023-03-31T04:22:13.251Z,100.00
2023-03-31T04:25:17.446Z,100.00
2023-03-31T04:28:21.093Z,100.00
2023-03-31T04:31:26.162Z,100.00
2023-03-31T04:34:35.754Z,100.00
2023-03-31T04:37:39.167Z,100.00
2023-03-31T04:40:42.158Z,100.00
2023-03-31T04:43:45.154Z,100.00
2023-03-31T04:46:48.352Z,100.00
2023-03-31T04:49:51.435Z,100.00
2023-03-31T04:52:55.109Z,100.00
2023-03-31T04:56:01.217Z,100.00
2023-03-31T04:59:04.513Z,100.00
2023-03-31T05:02:07.715Z,100.00
2023-03-31T05:05:11.379Z,100.00
2023-03-31T05:08:14.272Z,100.00
2023-03-31T05:11:17.506Z,100.00
2023-03-31T05:14:21.323Z,100.00
2023-03-31T05:17:24.029Z,100.00
2023-03-31T05:20:26.766Z,100.00
2023-03-31T05:23:30.790Z,100.00
2023-03-31T05:26:34.078Z,100.00
2023-03-31T05:29:37.391Z,100.00
2023-03-31T05:32:40.525Z,100.00
2023-03-31T05:35:44.694Z,100.00
2023-03-31T05:38:48.599Z,100.00
2023-03-31T05:41:51.402Z,100.00
2023-03-31T05:44:54.787Z,100.00
2023-03-31T05:47:58.011Z,100.00
2023-03-31T05:51:02.137Z,100.00
2023-03-31T05:54:05.002Z,100.00
2023-03-31T05:57:09.253Z,100.00
2023-03-31T06:00:13.727Z,90.60
2023-03-31T06:03:17.578Z,84.23
2023-03-31T06:06:21.978Z,84.34
2023-03-31T06:09:26.516Z,81.65
2023-03-31T06:12:29.392Z,79.16
2023-03-31T06:15:32.476Z,76.41
2023-03-31T06:18:36.514Z,68.00
2023-03-31T06:21:39.594Z,61.17
2023-03-31T06:24:43.001Z,57.01
2023-03-31T06:27:45.874Z,52.79
2023-03-31T06:30:48.795Z,53.20
2023-03-31T06:33:51.838Z,54.01
2023-03-31T06:36:54.946Z,54.41
2023-03-31T06:39:57.939Z,50.81
2023-03-31T06:43:01.355Z,45.01
2023-03-31T06:46:04.924Z,43.86
2023-03-31T06:49:07.637Z,45.04
2023-03-31T06:52:11.196Z,41.15
2023-03-31T06:55:17.129Z,36.48
2023-03-31T06:58:20.324Z,34.60
2023-03-31T07:01:23.066Z,33.55
2023-03-31T07:04:26.060Z,31.41
2023-03-31T07:07:31.404Z,32.76
2023-03-31T07:10:34.438Z,31.63
2023-03-31T07:13:36.801Z,31.34
2023-03-31T07:16:39.817Z,33.12
2023-03-31T07:19:42.994Z,37.45
2023-03-31T07:22:46.281Z,42.96
2023-03-31T07:25:49.309Z,49.51
2023-03-31T07:28:52.398Z,49.90
2023-03-31T07:31:55.033Z,49.13
2023-03-31T07:34:58.238Z,52.30
2023-03-31T07:38:01.559Z,51.97
2023-03-31T07:41:09.047Z,45.80
2023-03-31T07:44:12.168Z,43.70
2023-03-31T07:47:15.448Z,49.97
2023-03-31T07:50:20.805Z,58.42
2023-03-31T07:53:23.544Z,66.03
2023-03-31T07:56:26.743Z,69.17
2023-03-31T07:59:30.861Z,74.07
2023-03-31T08:02:35.530Z,73.72
2023-03-31T08:05:38.683Z,72.89
2023-03-31T08:08:43.785Z,75.53
2023-03-31T08:11:48.100Z,73.86
2023-03-31T08:14:51.684Z,73.78
2023-03-31T08:17:54.588Z,73.23
2023-03-31T08:20:57.443Z,74.51
2023-03-31T08:24:00.312Z,72.09
2023-03-31T08:27:03.334Z,72.42
2023-03-31T08:30:07.631Z,71.13
2023-03-31T08:33:12.690Z,71.55
2023-03-31T08:36:15.961Z,70.92
2023-03-31T08:39:19.310Z,68.49
2023-03-31T08:42:24.034Z,68.36
2023-03-31T08:45:30.960Z,71.32
2023-03-31T08:48:39.294Z,72.88
2023-03-31T08:51:42.838Z,71.10
2023-03-31T08:54:49.886Z,74.61
2023-03-31T08:57:58.347Z,75.88
2023-03-31T09:01:07.097Z,74.44
2023-03-31T09:04:22.501Z,78.39
2023-03-31T09:07:32.815Z,76.23
2023-03-31T09:10:42.548Z,78.40
2023-03-31T09:13:46.129Z,79.32
2023-03-31T09:16:51.863Z,81.72
2023-03-31T09:20:02.053Z,80.74
2023-03-31T09:23:18.491Z,80.50
2023-03-31T09:26:43.093Z,76.40
2023-03-31T09:29:58.985Z,75.61
2023-03-31T09:33:36.861Z,76.20
2023-03-31T09:36:39.746Z,76.46
2023-03-31T09:39:42.772Z,74.46
2023-03-31T09:42:47.068Z,73.73
2023-03-31T09:46:07.756Z,73.79
2023-03-31T09:49:14.752Z,71.50
2023-03-31T09:52:26.554Z,68.60
2023-03-31T09:55:44.061Z,67.31
2023-03-31T09:58:47.190Z,69.79
2023-03-31T10:01:54.374Z,70.18
2023-03-31T10:04:58.083Z,66.37
2023-03-31T10:08:20.258Z,68.72
2023-03-31T10:11:23.855Z,69.50
2023-03-31T10:14:49.572Z,64.22
2023-03-31T10:17:55.526Z,63.29
2023-03-31T10:20:59.751Z,63.86
2023-03-31T10:24:03.319Z,65.49
2023-03-31T10:27:07.895Z,64.82
2023-03-31T10:30:12.575Z,65.24
2023-03-31T10:36:26.648Z,64.92
2023-03-31T10:39:31.494Z,57.40
2023-03-31T10:42:34.704Z,58.78
2023-03-31T10:45:39.345Z,58.33
2023-03-31T10:48:43.318Z,62.62
2023-03-31T10:51:56.561Z,66.10
2023-03-31T10:54:59.565Z,67.63
2023-03-31T10:58:07.562Z,69.72
2023-03-31T11:01:30.123Z,68.07
2023-03-31T11:04:51.314Z,66.50
2023-03-31T11:07:54.029Z,62.31
2023-03-31T11:11:34.898Z,65.09
2023-03-31T11:14:56.405Z,66.16
2023-03-31T11:18:01.761Z,62.27
2023-03-31T11:21:13.304Z,59.43
2023-03-31T11:24:38.973Z,55.89
2023-03-31T11:27:51.431Z,56.06
2023-03-31T11:31:11.690Z,59.18
2023-03-31T11:34:13.964Z,59.46
2023-03-31T11:37:25.810Z,60.51
2023-03-31T11:40:28.277Z,59.83
2023-03-31T11:43:33.703Z,59.09
2023-03-31T11:46:36.581Z,60.92
2023-03-31T11:49:42.171Z,59.41
2023-03-31T11:52:49.258Z,61.00
2023-03-31T11:55:54.863Z,60.22
2023-03-31T11:58:59.480Z,58.24
2023-03-31T12:02:11.439Z,58.64
2023-03-31T12:05:14.938Z,60.44
2023-03-31T12:08:32.281Z,61.35
2023-03-31T12:11:40.725Z,61.20
2023-03-31T12:14:47.790Z,61.74
2023-03-31T12:17:56.436Z,62.44
2023-03-31T12:21:01.512Z,62.83
2023-03-31T12:24:05.399Z,60.79
2023-03-31T12:27:14.447Z,59.28
2023-03-31T12:30:20.926Z,56.02
2023-03-31T12:33:28.916Z,56.21
2023-03-31T12:36:55.509Z,56.32
2023-03-31T12:40:17.239Z,53.84
2023-03-31T12:43:38.459Z,53.90
2023-03-31T12:46:47.124Z,56.65
2023-03-31T12:49:52.494Z,56.43
2023-03-31T12:52:58.742Z,55.79
2023-03-31T12:56:01.120Z,56.44
2023-03-31T12:59:23.010Z,56.86
2023-03-31T13:02:26.508Z,58.05
2023-03-31T13:05:47.801Z,56.93
2023-03-31T13:08:51.396Z,60.12
2023-03-31T13:11:54.439Z,58.48
2023-03-31T13:15:00.583Z,59.45
2023-03-31T13:18:05.664Z,60.49
2023-03-31T13:21:09.571Z,61.35
2023-03-31T13:24:13.184Z,61.41
2023-03-31T13:27:30.393Z,57.93
2023-03-31T13:30:42.138Z,56.88
2023-03-31T13:33:57.577Z,55.92
2023-03-31T13:37:10.839Z,52.44
2023-03-31T13:40:16.815Z,52.19
2023-03-31T13:43:19.263Z,51.49
2023-03-31T13:46:40.190Z,54.77
2023-03-31T13:49:54.160Z,53.05
2023-03-31T13:53:09.505Z,54.63
2023-03-31T13:56:30.822Z,54.64
2023-03-31T13:59:48.934Z,54.78
2023-03-31T14:02:54.467Z,54.50
2023-03-31T14:06:14.557Z,53.42
2023-03-31T14:09:29.952Z,54.46
2023-03-31T14:12:36.846Z,55.00
2023-03-31T14:15:41.498Z,56.06
2023-03-31T14:18:49.629Z,55.66
2023-03-31T14:21:56.430Z,55.83
2023-03-31T14:25:34.546Z,55.31
2023-03-31T14:28:47.874Z,56.21
2023-03-31T14:32:05.556Z,54.01
2023-03-31T14:35:20.270Z,53.88
2023-03-31T14:38:23.378Z,54.37
2023-03-31T14:41:30.082Z,54.59
2023-03-31T14:44:33.940Z,53.31
2023-03-31T14:47:36.708Z,52.93
2023-03-31T14:50:42.410Z,53.30
2023-03-31T14:53:45.124Z,55.49
2023-03-31T14:56:53.457Z,55.50
2023-03-31T14:59:56.217Z,55.92
2023-03-31T15:03:00.486Z,56.97
2023-03-31T15:06:03.770Z,57.33
2023-03-31T15:09:06.536Z,58.75
2023-03-31T15:12:12.810Z,61.30
2023-03-31T15:15:16.338Z,61.56
2023-03-31T15:18:18.803Z,60.37
2023-03-31T15:21:22.486Z,60.89
2023-03-31T15:24:25.003Z,57.48
2023-03-31T15:27:36.956Z,57.23
2023-03-31T15:30:40.819Z,55.74
2023-03-31T15:33:43.320Z,56.13
2023-03-31T15:36:46.334Z,58.50
2023-03-31T15:39:49.616Z,59.72
2023-03-31T15:43:06.692Z,59.91
2023-03-31T15:46:21.100Z,60.27
2023-03-31T15:49:24.867Z,61.08
2023-03-31T15:52:36.533Z,61.38
2023-03-31T15:58:55.922Z,62.03
2023-03-31T16:02:00.279Z,61.92
2023-03-31T16:05:08.087Z,61.57
2023-03-31T16:08:24.692Z,61.29
2023-03-31T16:11:33.503Z,62.10
2023-03-31T16:14:38.665Z,61.15
2023-03-31T16:17:46.399Z,61.49
2023-03-31T16:20:56.606Z,61.68
2023-03-31T16:24:00.105Z,62.29
2023-03-31T16:27:07.110Z,64.34
2023-03-31T16:30:13.048Z,65.74
2023-03-31T16:33:19.547Z,64.98
2023-03-31T16:36:21.887Z,66.88
2023-03-31T16:39:24.403Z,67.00
2023-03-31T16:42:27.493Z,67.55
2023-03-31T16:45:30.491Z,68.22
2023-03-31T16:48:36.397Z,68.49
2023-03-31T16:51:39.209Z,70.97
2023-03-31T16:54:42.020Z,70.29
2023-03-31T16:57:44.300Z,69.39
2023-03-31T17:00:47.414Z,69.86
2023-03-31T17:03:50.293Z,70.81
2023-03-31T17:06:53.454Z,70.05
2023-03-31T17:09:56.000Z,69.89
2023-03-31T17:12:58.532Z,70.94
2023-03-31T17:19:27.568Z,72.05
2023-03-31T17:22:30.496Z,72.54
2023-03-31T17:25:35.378Z,72.92
2023-03-31T17:28:38.330Z,73.72
2023-03-31T17:31:41.167Z,74.42
2023-03-31T17:34:43.942Z,74.93
2023-03-31T17:37:46.605Z,75.37
2023-03-31T17:40:49.301Z,74.89
2023-03-31T17:43:51.740Z,76.18
2023-03-31T17:46:54.135Z,76.43
2023-03-31T17:49:56.537Z,76.73
2023-03-31T17:52:59.120Z,77.22
2023-03-31T17:56:02.371Z,77.00
2023-03-31T17:59:05.694Z,78.02
2023-03-31T18:02:08.847Z,77.97
2023-03-31T18:05:11.689Z,77.97
2023-03-31T18:08:14.466Z,78.17
2023-03-31T18:11:17.555Z,79.39
2023-03-31T18:14:20.842Z,81.53
2023-03-31T18:17:24.200Z,83.55
2023-03-31T18:20:26.752Z,85.13
2023-03-31T18:23:29.862Z,86.46
2023-03-31T18:26:32.420Z,90.42
2023-03-31T18:29:36.859Z,96.85
2023-03-31T18:32:40.527Z,98.33
2023-03-31T18:35:43.182Z,100.00
2023-03-31T18:38:46.506Z,100.00
2023-03-31T18:41:50.248Z,100.00
2023-03-31T18:44:53.650Z,99.70
2023-03-31T18:47:56.860Z,99.31
2023-03-31T18:50:59.835Z,96.63
2023-03-31T18:54:02.378Z,97.94
2023-03-31T18:57:05.035Z,96.65
2023-03-31T19:00:08.587Z,96.00
2023-03-31T19:03:12.070Z,95.53
2023-03-31T19:06:16.922Z,94.64
2023-03-31T19:09:20.714Z,95.22
2023-03-31T19:12:24.170Z,96.14
2023-03-31T19:15:28.440Z,96.67
2023-03-31T19:18:31.468Z,96.97
2023-03-31T19:21:36.818Z,96.94
2023-03-31T19:24:40.629Z,96.42
2023-03-31T19:27:44.044Z,97.77
2023-03-31T19:30:48.020Z,97.55
2023-03-31T19:33:50.706Z,98.65
2023-03-31T19:36:54.402Z,95.61
2023-03-31T19:39:57.197Z,96.22
2023-03-31T19:42:59.759Z,94.21
2023-03-31T19:46:02.835Z,91.80
2023-03-31T19:49:05.898Z,91.13
2023-03-31T19:52:08.745Z,93.72
2023-03-31T19:55:12.143Z,97.58
2023-03-31T19:58:15.125Z,97.68
2023-03-31T20:01:25.293Z,100.00
2023-03-31T20:04:27.924Z,100.00
2023-03-31T20:07:30.470Z,100.00
2023-03-31T20:10:33.017Z,100.00
2023-03-31T20:13:38.809Z,100.00
2023-03-31T20:16:41.906Z,100.00
2023-03-31T20:19:45.291Z,100.00
2023-03-31T20:22:47.633Z,100.00
2023-03-31T20:25:51.889Z,100.00
2023-03-31T20:28:56.110Z,100.00
2023-03-31T20:31:58.482Z,100.00
2023-03-31T20:35:00.698Z,100.00
2023-03-31T20:38:02.814Z,100.00
2023-03-31T20:41:05.725Z,100.00
2023-03-31T20:44:12.018Z,100.00
2023-03-31T20:47:15.907Z,100.00
2023-03-31T20:50:17.999Z,100.00
2023-03-31T20:53:20.056Z,100.00
2023-03-31T20:56:23.638Z,100.00
2023-03-31T20:59:25.707Z,100.00
2023-03-31T21:02:27.626Z,100.00
2023-03-31T21:05:29.959Z,100.00
2023-03-31T21:08:32.426Z,100.00
2023-03-31T21:11:34.609Z,100.00
2023-03-31T21:14:36.788Z,100.00
2023-03-31T21:17:38.904Z,100.00
2023-03-31T21:20:40.903Z,100.00
2023-03-31T21:23:42.779Z,100.00
2023-03-31T21:26:44.651Z,100.00
2023-03-31T21:29:46.482Z,100.00
2023-03-31T21:32:48.532Z,100.00
2023-03-31T21:35:51.269Z,100.00
2023-03-31T21:38:53.962Z,100.00
2023-03-31T21:41:55.895Z,100.00
2023-03-31T21:44:59.078Z,100.00
2023-03-31T21:48:01.364Z,100.00
2023-03-31T21:51:03.763Z,100.00
2023-03-31T21:54:06.840Z,100.00
2023-03-31T21:57:08.935Z,100.00
2023-03-31T22:00:15.784Z,100.00
2023-03-31T22:03:27.039Z,100.00
2023-03-31T22:06:30.018Z,100.00
2023-03-31T22:09:31.954Z,100.00
2023-03-31T22:12:34.217Z,100.00
2023-03-31T22:15:36.677Z,100.00
2023-03-31T22:18:38.655Z,100.00
2023-03-31T22:21:40.974Z,100.00
2023-03-31T22:24:42.913Z,100.00
2023-03-31T22:27:44.881Z,100.00
2023-03-31T22:30:47.304Z,100.00
2023-03-31T22:33:49.615Z,100.00
2023-03-31T22:36:51.885Z,100.00
2023-03-31T22:39:53.883Z,100.00
2023-03-31T22:42:57.480Z,100.00
2023-03-31T22:46:06.636Z,100.00
2023-03-31T22:49:09.794Z,100.00
2023-03-31T22:52:13.565Z,100.00
2023-03-31T22:55:15.930Z,100.00
2023-03-31T22:58:18.147Z,100.00
2023-03-31T23:01:20.964Z,100.00
2023-03-31T23:04:23.514Z,100.00
2023-03-31T23:07:25.997Z,100.00
2023-03-31T23:10:28.407Z,100.00
2023-03-31T23:13:30.966Z,100.00
2023-03-31T23:16:33.029Z,100.00
2023-03-31T23:19:35.135Z,100.00
2023-03-31T23:22:37.672Z,100.00
2023-03-31T23:25:39.696Z,100.00
2023-03-31T23:28:41.818Z,100.00
2023-03-31T23:31:44.056Z,100.00
2023-03-31T23:34:46.267Z,100.00
2023-03-31T23:37:48.571Z,100.00
2023-03-31T23:40:50.917Z,100.00
2023-03-31T23:43:53.896Z,100.00
2023-03-31T23:46:56.177Z,100.00
2023-03-31T23:49:58.748Z,100.00
2023-03-31T23:53:01.577Z,100.00
2023-03-31T23:56:13.448Z,100.00
2023-03-31T23:59:16.045Z,100.00
